sensor_id;sensor_type;location;lat;lon;timestamp;pressure;altitude;pressure_sealevel;temperature;humidity
37202;BME280;37799;52.390;6.136;2023-12-04T00:01:00;101369.69;;;0.37;100.00
37202;BME280;37799;52.390;6.136;2023-12-04T00:03:25;101375.69;;;0.39;100.00
37202;BME280;37799;52.390;6.136;2023-12-04T00:05:50;101362.72;;;0.28;100.00
37202;BME280;37799;52.390;6.136;2023-12-04T00:08:15;101367.81;;;0.28;100.00
37202;BME280;37799;52.390;6.136;2023-12-04T00:10:41;101363.56;;;0.28;100.00
37202;BME280;37799;52.390;6.136;2023-12-04T00:13:06;101354.09;;;0.24;100.00
37202;BME280;37799;52.390;6.136;2023-12-04T00:15:31;101357.69;;;0.31;100.00
37202;BME280;37799;52.390;6.136;2023-12-04T00:17:57;101351.50;;;0.57;100.00
37202;BME280;37799;52.390;6.136;2023-12-04T00:20:22;101348.38;;;0.33;100.00
37202;BME280;37799;52.390;6.136;2023-12-04T00:22:47;101347.16;;;0.17;100.00
37202;BME280;37799;52.390;6.136;2023-12-04T00:25:13;101343.84;;;0.21;100.00
37202;BME280;37799;52.390;6.136;2023-12-04T00:27:38;101340.00;;;0.39;100.00
37202;BME280;37799;52.390;6.136;2023-12-04T00:30:04;101349.94;;;0.26;100.00
37202;BME280;37799;52.390;6.136;2023-12-04T00:32:30;101330.78;;;0.42;100.00
37202;BME280;37799;52.390;6.136;2023-12-04T00:34:55;101337.06;;;0.22;100.00
37202;BME280;37799;52.390;6.136;2023-12-04T00:37:21;101337.13;;;0.25;100.00
37202;BME280;37799;52.390;6.136;2023-12-04T00:39:47;101344.97;;;0.33;100.00
37202;BME280;37799;52.390;6.136;2023-12-04T00:42:12;101331.72;;;0.47;100.00
37202;BME280;37799;52.390;6.136;2023-12-04T00:44:38;101336.06;;;0.51;100.00
37202;BME280;37799;52.390;6.136;2023-12-04T00:47:03;101333.13;;;0.35;100.00
37202;BME280;37799;52.390;6.136;2023-12-04T00:49:28;101329.94;;;0.43;100.00
37202;BME280;37799;52.390;6.136;2023-12-04T00:51:54;101322.16;;;0.37;100.00
37202;BME280;37799;52.390;6.136;2023-12-04T00:54:19;101322.06;;;0.33;100.00
37202;BME280;37799;52.390;6.136;2023-12-04T00:56:44;101319.75;;;0.43;100.00
37202;BME280;37799;52.390;6.136;2023-12-04T00:59:10;101313.56;;;0.32;100.00
37202;BME280;37799;52.390;6.136;2023-12-04T01:01:38;101315.31;;;0.35;100.00
37202;BME280;37799;52.390;6.136;2023-12-04T01:04:03;101302.22;;;0.19;100.00
37202;BME280;37799;52.390;6.136;2023-12-04T01:06:29;101314.53;;;0.39;100.00
37202;BME280;37799;52.390;6.136;2023-12-04T01:08:55;101308.53;;;0.35;100.00
37202;BME280;37799;52.390;6.136;2023-12-04T01:11:20;101303.50;;;0.38;100.00
37202;BME280;37799;52.390;6.136;2023-12-04T01:13:46;101293.19;;;0.34;100.00
37202;BME280;37799;52.390;6.136;2023-12-04T01:16:12;101299.59;;;0.16;100.00
37202;BME280;37799;52.390;6.136;2023-12-04T01:18:37;101310.94;;;0.29;100.00
37202;BME280;37799;52.390;6.136;2023-12-04T01:21:03;101297.53;;;0.38;100.00
37202;BME280;37799;52.390;6.136;2023-12-04T01:23:28;101294.47;;;0.15;100.00
37202;BME280;37799;52.390;6.136;2023-12-04T01:25:53;101296.53;;;0.31;100.00
37202;BME280;37799;52.390;6.136;2023-12-04T01:28:19;101281.03;;;0.22;100.00
37202;BME280;37799;52.390;6.136;2023-12-04T01:30:44;101279.38;;;0.24;100.00
37202;BME280;37799;52.390;6.136;2023-12-04T01:33:09;101282.16;;;0.33;100.00
37202;BME280;37799;52.390;6.136;2023-12-04T01:35:35;101288.06;;;0.32;100.00
37202;BME280;37799;52.390;6.136;2023-12-04T01:38:00;101286.63;;;0.43;100.00
37202;BME280;37799;52.390;6.136;2023-12-04T01:40:26;101287.31;;;0.36;100.00
37202;BME280;37799;52.390;6.136;2023-12-04T01:42:52;101288.00;;;0.29;100.00
37202;BME280;37799;52.390;6.136;2023-12-04T01:45:17;101287.56;;;0.11;100.00
37202;BME280;37799;52.390;6.136;2023-12-04T01:47:42;101292.66;;;0.11;100.00
37202;BME280;37799;52.390;6.136;2023-12-04T01:50:08;101284.34;;;0.18;100.00
37202;BME280;37799;52.390;6.136;2023-12-04T01:52:34;101287.06;;;0.25;100.00
37202;BME280;37799;52.390;6.136;2023-12-04T01:55:01;101277.22;;;0.39;100.00
37202;BME280;37799;52.390;6.136;2023-12-04T01:57:27;101268.63;;;0.36;100.00
37202;BME280;37799;52.390;6.136;2023-12-04T01:59:55;101257.56;;;0.35;100.00
37202;BME280;37799;52.390;6.136;2023-12-04T02:02:21;101262.31;;;0.20;100.00
37202;BME280;37799;52.390;6.136;2023-12-04T02:04:46;101252.47;;;0.35;100.00
37202;BME280;37799;52.390;6.136;2023-12-04T02:07:11;101265.53;;;0.13;100.00
37202;BME280;37799;52.390;6.136;2023-12-04T02:09:37;101263.59;;;0.39;100.00
37202;BME280;37799;52.390;6.136;2023-12-04T02:12:03;101258.47;;;0.37;100.00
37202;BME280;37799;52.390;6.136;2023-12-04T02:14:28;101260.03;;;0.31;100.00
37202;BME280;37799;52.390;6.136;2023-12-04T02:16:55;101252.38;;;0.31;100.00
37202;BME280;37799;52.390;6.136;2023-12-04T02:19:21;101250.69;;;0.31;100.00
37202;BME280;37799;52.390;6.136;2023-12-04T02:21:47;101238.25;;;0.45;100.00
37202;BME280;37799;52.390;6.136;2023-12-04T02:24:12;101240.44;;;0.28;100.00
37202;BME280;37799;52.390;6.136;2023-12-04T02:26:45;101227.59;;;0.23;100.00
37202;BME280;37799;52.390;6.136;2023-12-04T02:29:15;101227.88;;;0.37;100.00
37202;BME280;37799;52.390;6.136;2023-12-04T02:31:44;101221.16;;;0.39;100.00
37202;BME280;37799;52.390;6.136;2023-12-04T02:34:11;101220.19;;;0.34;100.00
37202;BME280;37799;52.390;6.136;2023-12-04T02:36:38;101214.94;;;0.26;100.00
37202;BME280;37799;52.390;6.136;2023-12-04T02:39:04;101218.41;;;0.30;100.00
37202;BME280;37799;52.390;6.136;2023-12-04T02:41:29;101215.41;;;0.10;100.00
37202;BME280;37799;52.390;6.136;2023-12-04T02:43:55;101211.41;;;0.21;100.00
37202;BME280;37799;52.390;6.136;2023-12-04T02:46:20;101205.53;;;0.24;100.00
37202;BME280;37799;52.390;6.136;2023-12-04T02:48:46;101206.22;;;0.15;100.00
37202;BME280;37799;52.390;6.136;2023-12-04T02:51:11;101206.56;;;0.32;100.00
37202;BME280;37799;52.390;6.136;2023-12-04T02:53:36;101202.44;;;0.39;100.00
37202;BME280;37799;52.390;6.136;2023-12-04T02:56:02;101197.31;;;0.37;100.00
37202;BME280;37799;52.390;6.136;2023-12-04T02:58:27;101191.75;;;0.14;100.00
37202;BME280;37799;52.390;6.136;2023-12-04T03:00:52;101191.41;;;0.38;100.00
37202;BME280;37799;52.390;6.136;2023-12-04T03:03:18;101197.22;;;0.31;100.00
37202;BME280;37799;52.390;6.136;2023-12-04T03:05:43;101186.94;;;0.26;100.00
37202;BME280;37799;52.390;6.136;2023-12-04T03:08:08;101188.09;;;0.41;100.00
37202;BME280;37799;52.390;6.136;2023-12-04T03:10:33;101187.00;;;0.29;100.00
37202;BME280;37799;52.390;6.136;2023-12-04T03:12:59;101175.94;;;0.29;100.00
37202;BME280;37799;52.390;6.136;2023-12-04T03:15:24;101175.94;;;0.29;100.00
37202;BME280;37799;52.390;6.136;2023-12-04T03:17:49;101172.16;;;0.12;100.00
37202;BME280;37799;52.390;6.136;2023-12-04T03:20:15;101167.06;;;0.12;100.00
37202;BME280;37799;52.390;6.136;2023-12-04T03:22:40;101164.81;;;0.25;100.00
37202;BME280;37799;52.390;6.136;2023-12-04T03:25:06;101161.59;;;0.34;100.00
37202;BME280;37799;52.390;6.136;2023-12-04T03:27:31;101153.28;;;0.41;100.00
37202;BME280;37799;52.390;6.136;2023-12-04T03:29:57;101150.63;;;0.38;100.00
37202;BME280;37799;52.390;6.136;2023-12-04T03:32:22;101146.91;;;0.22;100.00
37202;BME280;37799;52.390;6.136;2023-12-04T03:34:47;101156.75;;;0.46;100.00
37202;BME280;37799;52.390;6.136;2023-12-04T03:37:13;101145.69;;;0.44;100.00
37202;BME280;37799;52.390;6.136;2023-12-04T03:39:38;101145.03;;;0.54;100.00
37202;BME280;37799;52.390;6.136;2023-12-04T03:42:03;101138.16;;;0.50;100.00
37202;BME280;37799;52.390;6.136;2023-12-04T03:44:29;101143.78;;;0.34;100.00
37202;BME280;37799;52.390;6.136;2023-12-04T03:46:54;101140.56;;;0.43;100.00
37202;BME280;37799;52.390;6.136;2023-12-04T03:49:19;101141.88;;;0.25;100.00
37202;BME280;37799;52.390;6.136;2023-12-04T03:51:45;101146.25;;;0.29;100.00
37202;BME280;37799;52.390;6.136;2023-12-04T03:54:10;101135.94;;;0.25;100.00
37202;BME280;37799;52.390;6.136;2023-12-04T03:56:36;101136.31;;;0.42;100.00
37202;BME280;37799;52.390;6.136;2023-12-04T03:59:01;101144.53;;;0.30;100.00
37202;BME280;37799;52.390;6.136;2023-12-04T04:01:27;101133.91;;;0.09;100.00
37202;BME280;37799;52.390;6.136;2023-12-04T04:03:52;101137.75;;;0.29;100.00
37202;BME280;37799;52.390;6.136;2023-12-04T04:06:17;101125.06;;;0.32;100.00
37202;BME280;37799;52.390;6.136;2023-12-04T04:08:42;101122.63;;;0.38;100.00
37202;BME280;37799;52.390;6.136;2023-12-04T04:11:08;101123.25;;;0.26;100.00
37202;BME280;37799;52.390;6.136;2023-12-04T04:13:33;101121.81;;;0.39;100.00
37202;BME280;37799;52.390;6.136;2023-12-04T04:15:58;101125.34;;;0.47;100.00
37202;BME280;37799;52.390;6.136;2023-12-04T04:18:23;101115.13;;;0.46;100.00
37202;BME280;37799;52.390;6.136;2023-12-04T04:20:49;101116.00;;;0.46;100.00
37202;BME280;37799;52.390;6.136;2023-12-04T04:23:14;101103.94;;;0.38;100.00
37202;BME280;37799;52.390;6.136;2023-12-04T04:25:39;101100.84;;;0.52;100.00
37202;BME280;37799;52.390;6.136;2023-12-04T04:28:05;101102.22;;;0.37;100.00
37202;BME280;37799;52.390;6.136;2023-12-04T04:30:30;101105.66;;;0.39;100.00
37202;BME280;37799;52.390;6.136;2023-12-04T04:32:55;101107.28;;;0.35;100.00
37202;BME280;37799;52.390;6.136;2023-12-04T04:35:21;101096.22;;;0.33;100.00
37202;BME280;37799;52.390;6.136;2023-12-04T04:37:46;101091.06;;;0.30;100.00
37202;BME280;37799;52.390;6.136;2023-12-04T04:40:11;101093.09;;;0.48;100.00
37202;BME280;37799;52.390;6.136;2023-12-04T04:42:37;101089.66;;;0.46;100.00
37202;BME280;37799;52.390;6.136;2023-12-04T04:45:02;101087.78;;;0.37;100.00
37202;BME280;37799;52.390;6.136;2023-12-04T04:47:27;101086.22;;;0.42;100.00
37202;BME280;37799;52.390;6.136;2023-12-04T04:49:53;101082.81;;;0.42;100.00
37202;BME280;37799;52.390;6.136;2023-12-04T04:52:18;101074.31;;;0.41;100.00
37202;BME280;37799;52.390;6.136;2023-12-04T04:54:43;101071.03;;;0.50;100.00
37202;BME280;37799;52.390;6.136;2023-12-04T04:57:09;101070.72;;;0.33;100.00
37202;BME280;37799;52.390;6.136;2023-12-04T04:59:34;101064.09;;;0.40;100.00
37202;BME280;37799;52.390;6.136;2023-12-04T05:01:59;101061.81;;;0.55;100.00
37202;BME280;37799;52.390;6.136;2023-12-04T05:04:25;101062.31;;;0.37;100.00
37202;BME280;37799;52.390;6.136;2023-12-04T05:06:50;101057.16;;;0.34;100.00
37202;BME280;37799;52.390;6.136;2023-12-04T05:09:15;101052.66;;;0.21;100.00
37202;BME280;37799;52.390;6.136;2023-12-04T05:11:41;101056.34;;;0.35;100.00
37202;BME280;37799;52.390;6.136;2023-12-04T05:14:06;101053.03;;;0.39;100.00
37202;BME280;37799;52.390;6.136;2023-12-04T05:16:31;101053.13;;;0.45;100.00
37202;BME280;37799;52.390;6.136;2023-12-04T05:18:57;101057.31;;;0.40;100.00
37202;BME280;37799;52.390;6.136;2023-12-04T05:21:22;101053.84;;;0.38;100.00
37202;BME280;37799;52.390;6.136;2023-12-04T05:23:47;101053.91;;;0.41;100.00
37202;BME280;37799;52.390;6.136;2023-12-04T05:26:13;101037.94;;;0.50;100.00
37202;BME280;37799;52.390;6.136;2023-12-04T05:28:38;101047.13;;;0.42;100.00
37202;BME280;37799;52.390;6.136;2023-12-04T05:31:04;101051.19;;;0.32;100.00
37202;BME280;37799;52.390;6.136;2023-12-04T05:33:30;101048.88;;;0.44;100.00
37202;BME280;37799;52.390;6.136;2023-12-04T05:35:55;101040.88;;;0.26;100.00
37202;BME280;37799;52.390;6.136;2023-12-04T05:38:21;101037.63;;;0.33;100.00
37202;BME280;37799;52.390;6.136;2023-12-04T05:40:46;101030.38;;;0.11;100.00
37202;BME280;37799;52.390;6.136;2023-12-04T05:43:11;101039.06;;;0.20;100.00
37202;BME280;37799;52.390;6.136;2023-12-04T05:45:38;101042.78;;;0.36;100.00
37202;BME280;37799;52.390;6.136;2023-12-04T05:48:03;101030.38;;;0.09;100.00
37202;BME280;37799;52.390;6.136;2023-12-04T05:50:29;101033.28;;;0.27;100.00
37202;BME280;37799;52.390;6.136;2023-12-04T05:52:54;101022.16;;;0.24;100.00
37202;BME280;37799;52.390;6.136;2023-12-04T05:55:20;101021.81;;;0.51;100.00
37202;BME280;37799;52.390;6.136;2023-12-04T05:57:46;101018.28;;;0.43;100.00
37202;BME280;37799;52.390;6.136;2023-12-04T06:00:12;101018.25;;;0.41;100.00
37202;BME280;37799;52.390;6.136;2023-12-04T06:02:44;101020.66;;;0.34;100.00
37202;BME280;37799;52.390;6.136;2023-12-04T06:05:10;101019.56;;;0.21;100.00
37202;BME280;37799;52.390;6.136;2023-12-04T06:07:36;101015.50;;;0.31;100.00
37202;BME280;37799;52.390;6.136;2023-12-04T06:10:03;101012.09;;;0.30;100.00
37202;BME280;37799;52.390;6.136;2023-12-04T06:12:32;101012.09;;;0.30;100.00
37202;BME280;37799;52.390;6.136;2023-12-04T06:14:57;101010.41;;;0.31;100.00
37202;BME280;37799;52.390;6.136;2023-12-04T06:17:24;101000.19;;;0.29;100.00
37202;BME280;37799;52.390;6.136;2023-12-04T06:19:49;100987.69;;;0.41;100.00
37202;BME280;37799;52.390;6.136;2023-12-04T06:22:14;100996.22;;;0.43;100.00
37202;BME280;37799;52.390;6.136;2023-12-04T06:24:40;100996.25;;;0.46;100.00
37202;BME280;37799;52.390;6.136;2023-12-04T06:27:06;100991.84;;;0.38;100.00
37202;BME280;37799;52.390;6.136;2023-12-04T06:29:34;100991.00;;;0.37;100.00
37202;BME280;37799;52.390;6.136;2023-12-04T06:32:00;100986.03;;;0.43;100.00
37202;BME280;37799;52.390;6.136;2023-12-04T06:34:26;100985.91;;;0.37;100.00
37202;BME280;37799;52.390;6.136;2023-12-04T06:36:51;100979.41;;;0.53;100.00
37202;BME280;37799;52.390;6.136;2023-12-04T06:39:17;100976.66;;;0.41;100.00
37202;BME280;37799;52.390;6.136;2023-12-04T06:41:43;100985.78;;;0.29;100.00
37202;BME280;37799;52.390;6.136;2023-12-04T06:44:09;100980.94;;;0.45;100.00
37202;BME280;37799;52.390;6.136;2023-12-04T06:46:37;100982.38;;;0.29;100.00
37202;BME280;37799;52.390;6.136;2023-12-04T06:49:04;100965.91;;;0.58;100.00
37202;BME280;37799;52.390;6.136;2023-12-04T06:51:31;100972.41;;;0.41;100.00
37202;BME280;37799;52.390;6.136;2023-12-04T06:53:56;100969.94;;;0.46;100.00
37202;BME280;37799;52.390;6.136;2023-12-04T06:56:22;100969.69;;;0.32;100.00
37202;BME280;37799;52.390;6.136;2023-12-04T06:58:47;100961.13;;;0.27;100.00
37202;BME280;37799;52.390;6.136;2023-12-04T07:01:12;100957.16;;;0.44;100.00
37202;BME280;37799;52.390;6.136;2023-12-04T07:03:38;100957.03;;;0.38;100.00
37202;BME280;37799;52.390;6.136;2023-12-04T07:06:03;100955.31;;;0.37;100.00
37202;BME280;37799;52.390;6.136;2023-12-04T07:08:29;100946.91;;;0.40;100.00
37202;BME280;37799;52.390;6.136;2023-12-04T07:10:54;100950.53;;;0.52;100.00
37202;BME280;37799;52.390;6.136;2023-12-04T07:13:19;100943.53;;;0.42;100.00
37202;BME280;37799;52.390;6.136;2023-12-04T07:15:45;100949.44;;;0.40;100.00
37202;BME280;37799;52.390;6.136;2023-12-04T07:18:10;100943.09;;;0.66;100.00
37202;BME280;37799;52.390;6.136;2023-12-04T07:20:35;100944.44;;;0.46;100.00
37202;BME280;37799;52.390;6.136;2023-12-04T07:23:01;100948.78;;;0.51;100.00
37202;BME280;37799;52.390;6.136;2023-12-04T07:25:27;100934.25;;;0.46;100.00
37202;BME280;37799;52.390;6.136;2023-12-04T07:27:52;100941.88;;;0.44;100.00
37202;BME280;37799;52.390;6.136;2023-12-04T07:30:17;100936.03;;;0.51;100.00
37202;BME280;37799;52.390;6.136;2023-12-04T07:32:43;100938.50;;;0.45;100.00
37202;BME280;37799;52.390;6.136;2023-12-04T07:35:08;100940.56;;;0.66;100.00
37202;BME280;37799;52.390;6.136;2023-12-04T07:37:33;100939.81;;;0.75;100.00
37202;BME280;37799;52.390;6.136;2023-12-04T07:39:59;100933.78;;;0.68;100.00
37202;BME280;37799;52.390;6.136;2023-12-04T07:42:24;100918.47;;;0.67;100.00
37202;BME280;37799;52.390;6.136;2023-12-04T07:44:49;100929.22;;;0.49;100.00
37202;BME280;37799;52.390;6.136;2023-12-04T07:47:15;100929.09;;;0.41;100.00
37202;BME280;37799;52.390;6.136;2023-12-04T07:49:41;100925.03;;;0.52;100.00
37202;BME280;37799;52.390;6.136;2023-12-04T07:52:07;100926.69;;;0.50;100.00
37202;BME280;37799;52.390;6.136;2023-12-04T07:54:32;100923.47;;;0.61;100.00
37202;BME280;37799;52.390;6.136;2023-12-04T07:56:57;100915.09;;;0.68;100.00
37202;BME280;37799;52.390;6.136;2023-12-04T07:59:23;100914.38;;;0.78;100.00
37202;BME280;37799;52.390;6.136;2023-12-04T08:01:48;100910.03;;;0.71;100.00
37202;BME280;37799;52.390;6.136;2023-12-04T08:04:13;100906.81;;;0.84;100.00
37202;BME280;37799;52.390;6.136;2023-12-04T08:06:39;100898.94;;;0.67;100.00
37202;BME280;37799;52.390;6.136;2023-12-04T08:09:04;100899.88;;;0.75;100.00
37202;BME280;37799;52.390;6.136;2023-12-04T08:11:34;100897.50;;;0.86;100.00
37202;BME280;37799;52.390;6.136;2023-12-04T08:13:59;100889.03;;;0.88;100.00
37202;BME280;37799;52.390;6.136;2023-12-04T08:16:24;100897.50;;;0.84;100.00
37202;BME280;37799;52.390;6.136;2023-12-04T08:18:50;100885.63;;;0.86;100.00
37202;BME280;37799;52.390;6.136;2023-12-04T08:21:15;100895.09;;;0.95;100.00
37202;BME280;37799;52.390;6.136;2023-12-04T08:23:40;100886.63;;;0.96;100.00
37202;BME280;37799;52.390;6.136;2023-12-04T08:26:06;100886.47;;;0.87;100.00
37202;BME280;37799;52.390;6.136;2023-12-04T08:28:33;100879.59;;;0.80;100.00
37202;BME280;37799;52.390;6.136;2023-12-04T08:30:58;100883.13;;;0.91;100.00
37202;BME280;37799;52.390;6.136;2023-12-04T08:33:23;100872.16;;;0.97;100.00
37202;BME280;37799;52.390;6.136;2023-12-04T08:35:49;100882.53;;;1.09;100.00
37202;BME280;37799;52.390;6.136;2023-12-04T08:38:14;100871.59;;;1.17;100.00
37202;BME280;37799;52.390;6.136;2023-12-04T08:40:40;100878.34;;;1.15;100.00
37202;BME280;37799;52.390;6.136;2023-12-04T08:43:05;100871.44;;;1.05;100.00
37202;BME280;37799;52.390;6.136;2023-12-04T08:45:30;100879.44;;;1.31;100.00
37202;BME280;37799;52.390;6.136;2023-12-04T08:47:55;100880.19;;;1.26;100.00
37202;BME280;37799;52.390;6.136;2023-12-04T08:50:21;100887.00;;;1.27;100.00
37202;BME280;37799;52.390;6.136;2023-12-04T08:52:46;100883.63;;;1.28;100.00
37202;BME280;37799;52.390;6.136;2023-12-04T08:55:11;100897.31;;;1.33;100.00
37202;BME280;37799;52.390;6.136;2023-12-04T08:57:37;100900.63;;;1.29;100.00
37202;BME280;37799;52.390;6.136;2023-12-04T09:00:03;100896.28;;;1.20;100.00
37202;BME280;37799;52.390;6.136;2023-12-04T09:02:28;100908.50;;;1.44;100.00
37202;BME280;37799;52.390;6.136;2023-12-04T09:04:54;100889.69;;;1.37;100.00
37202;BME280;37799;52.390;6.136;2023-12-04T09:07:19;100892.19;;;1.33;100.00
37202;BME280;37799;52.390;6.136;2023-12-04T09:09:44;100886.25;;;1.32;100.00
37202;BME280;37799;52.390;6.136;2023-12-04T09:12:11;100882.03;;;1.36;100.00
37202;BME280;37799;52.390;6.136;2023-12-04T09:14:36;100894.00;;;1.41;100.00
37202;BME280;37799;52.390;6.136;2023-12-04T09:17:02;100889.13;;;1.61;100.00
37202;BME280;37799;52.390;6.136;2023-12-04T09:19:28;100891.81;;;1.70;100.00
37202;BME280;37799;52.390;6.136;2023-12-04T09:21:54;100891.69;;;1.61;100.00
37202;BME280;37799;52.390;6.136;2023-12-04T09:24:20;100890.16;;;1.77;100.00
37202;BME280;37799;52.390;6.136;2023-12-04T09:26:45;100893.31;;;1.56;100.00
37202;BME280;37799;52.390;6.136;2023-12-04T09:29:11;100889.13;;;1.61;100.00
37202;BME280;37799;52.390;6.136;2023-12-04T09:31:37;100880.66;;;1.65;100.00
37202;BME280;37799;52.390;6.136;2023-12-04T09:34:03;100876.34;;;1.58;100.00
37202;BME280;37799;52.390;6.136;2023-12-04T09:36:28;100875.63;;;1.71;100.00
37202;BME280;37799;52.390;6.136;2023-12-04T09:38:54;100874.09;;;1.87;100.00
37202;BME280;37799;52.390;6.136;2023-12-04T09:41:20;100876.56;;;1.81;100.00
37202;BME280;37799;52.390;6.136;2023-12-04T09:43:46;100869.94;;;1.95;100.00
37202;BME280;37799;52.390;6.136;2023-12-04T09:46:12;100867.28;;;1.88;100.00
37202;BME280;37799;52.390;6.136;2023-12-04T09:48:40;100865.69;;;1.97;100.00
37202;BME280;37799;52.390;6.136;2023-12-04T09:51:08;100862.31;;;2.03;100.00
37202;BME280;37799;52.390;6.136;2023-12-04T09:53:35;100866.56;;;2.02;100.00
37202;BME280;37799;52.390;6.136;2023-12-04T09:56:02;100864.16;;;2.19;100.00
37202;BME280;37799;52.390;6.136;2023-12-04T09:58:28;100864.13;;;2.13;100.00
37202;BME280;37799;52.390;6.136;2023-12-04T10:00:56;100859.78;;;2.04;100.00
37202;BME280;37799;52.390;6.136;2023-12-04T10:03:21;100859.00;;;2.09;100.00
37202;BME280;37799;52.390;6.136;2023-12-04T10:05:47;100852.13;;;2.06;100.00
37202;BME280;37799;52.390;6.136;2023-12-04T10:08:13;100847.94;;;2.13;100.00
37202;BME280;37799;52.390;6.136;2023-12-04T10:10:39;100854.00;;;2.22;100.00
37202;BME280;37799;52.390;6.136;2023-12-04T10:13:04;100849.03;;;2.44;100.00
37202;BME280;37799;52.390;6.136;2023-12-04T10:15:30;100839.63;;;2.36;100.00
37202;BME280;37799;52.390;6.136;2023-12-04T10:17:55;100836.91;;;2.18;100.00
37202;BME280;37799;52.390;6.136;2023-12-04T10:20:21;100832.75;;;2.28;100.00
37202;BME280;37799;52.390;6.136;2023-12-04T10:25:22;100824.09;;;2.14;100.00
37202;BME280;37799;52.390;6.136;2023-12-04T10:27:48;100812.97;;;2.07;100.00
37202;BME280;37799;52.390;6.136;2023-12-04T10:30:27;100812.09;;;2.05;100.00
37202;BME280;37799;52.390;6.136;2023-12-04T10:32:54;100806.31;;;2.24;100.00
37202;BME280;37799;52.390;6.136;2023-12-04T10:35:20;100805.38;;;2.15;100.00
37202;BME280;37799;52.390;6.136;2023-12-04T10:37:45;100801.13;;;2.12;100.00
37202;BME280;37799;52.390;6.136;2023-12-04T10:40:11;100801.22;;;2.27;100.00
37202;BME280;37799;52.390;6.136;2023-12-04T10:42:37;100799.41;;;2.13;100.00
37202;BME280;37799;52.390;6.136;2023-12-04T10:45:03;100793.50;;;2.20;100.00
37202;BME280;37799;52.390;6.136;2023-12-04T10:47:32;100789.19;;;2.11;100.00
37202;BME280;37799;52.390;6.136;2023-12-04T10:49:59;100784.09;;;2.14;100.00
37202;BME280;37799;52.390;6.136;2023-12-04T10:52:28;100778.16;;;2.17;100.00
37202;BME280;37799;52.390;6.136;2023-12-04T10:54:53;100780.63;;;2.06;100.00
37202;BME280;37799;52.390;6.136;2023-12-04T10:57:26;100779.84;;;2.13;100.00
37202;BME280;37799;52.390;6.136;2023-12-04T10:59:57;100775.69;;;2.30;100.00
37202;BME280;37799;52.390;6.136;2023-12-04T11:02:25;100773.97;;;2.29;100.00
37202;BME280;37799;52.390;6.136;2023-12-04T11:04:55;100774.81;;;2.22;100.00
37202;BME280;37799;52.390;6.136;2023-12-04T11:07:24;100769.63;;;2.16;100.00
37202;BME280;37799;52.390;6.136;2023-12-04T11:09:50;100768.03;;;2.30;100.00
37202;BME280;37799;52.390;6.136;2023-12-04T11:12:18;100764.72;;;2.47;100.00
37202;BME280;37799;52.390;6.136;2023-12-04T11:14:52;100760.22;;;2.09;100.00
37202;BME280;37799;52.390;6.136;2023-12-04T11:17:19;100761.13;;;2.19;100.00
37202;BME280;37799;52.390;6.136;2023-12-04T11:20:10;100763.75;;;2.26;100.00
37202;BME280;37799;52.390;6.136;2023-12-04T11:22:38;100759.41;;;2.15;100.00
37202;BME280;37799;52.390;6.136;2023-12-04T11:25:06;100757.72;;;2.21;100.00
37202;BME280;37799;52.390;6.136;2023-12-04T11:27:33;100752.69;;;2.29;100.00
37202;BME280;37799;52.390;6.136;2023-12-04T11:29:59;100744.22;;;2.34;100.00
37202;BME280;37799;52.390;6.136;2023-12-04T11:32:28;100759.47;;;2.22;100.00
37202;BME280;37799;52.390;6.136;2023-12-04T11:34:59;100751.84;;;2.28;100.00
37202;BME280;37799;52.390;6.136;2023-12-04T11:37:25;100746.81;;;2.45;100.00
37202;BME280;37799;52.390;6.136;2023-12-04T11:39:51;100745.09;;;2.36;100.00
37202;BME280;37799;52.390;6.136;2023-12-04T11:42:22;100746.81;;;2.42;100.00
37202;BME280;37799;52.390;6.136;2023-12-04T11:44:48;100732.31;;;2.44;100.00
37202;BME280;37799;52.390;6.136;2023-12-04T11:47:15;100726.34;;;2.41;100.00
37202;BME280;37799;52.390;6.136;2023-12-04T11:49:41;100727.22;;;2.41;100.00
37202;BME280;37799;52.390;6.136;2023-12-04T11:52:06;100714.28;;;2.18;100.00
37202;BME280;37799;52.390;6.136;2023-12-04T11:55:03;100713.50;;;2.27;100.00
37202;BME280;37799;52.390;6.136;2023-12-04T11:57:32;100702.50;;;2.39;100.00
37202;BME280;37799;52.390;6.136;2023-12-04T12:03:01;100690.53;;;2.33;100.00
37202;BME280;37799;52.390;6.136;2023-12-04T12:05:32;100693.91;;;2.29;100.00
37202;BME280;37799;52.390;6.136;2023-12-04T12:08:05;100693.94;;;2.33;100.00
37202;BME280;37799;52.390;6.136;2023-12-04T12:10:31;100693.88;;;2.21;100.00
37202;BME280;37799;52.390;6.136;2023-12-04T12:12:57;100687.94;;;2.24;100.00
37202;BME280;37799;52.390;6.136;2023-12-04T12:15:22;100687.09;;;2.28;100.00
37202;BME280;37799;52.390;6.136;2023-12-04T12:17:49;100687.09;;;2.29;100.00
37202;BME280;37799;52.390;6.136;2023-12-04T12:20:15;100674.34;;;2.29;100.00
37202;BME280;37799;52.390;6.136;2023-12-04T12:22:41;100671.72;;;2.20;100.00
37202;BME280;37799;52.390;6.136;2023-12-04T12:25:10;100670.06;;;2.25;100.00
37202;BME280;37799;52.390;6.136;2023-12-04T12:27:36;100664.16;;;2.39;100.00
37202;BME280;37799;52.390;6.136;2023-12-04T12:30:02;100662.44;;;2.34;100.00
37202;BME280;37799;52.390;6.136;2023-12-04T12:32:30;100653.91;;;2.29;100.00
37202;BME280;37799;52.390;6.136;2023-12-04T12:34:56;100647.13;;;2.36;100.00
37202;BME280;37799;52.390;6.136;2023-12-04T12:37:21;100647.09;;;2.33;100.00
37202;BME280;37799;52.390;6.136;2023-12-04T12:39:47;100640.31;;;2.43;100.00
37202;BME280;37799;52.390;6.136;2023-12-04T12:42:27;100634.38;;;2.44;100.00
37202;BME280;37799;52.390;6.136;2023-12-04T12:44:54;100637.00;;;2.63;100.00
37202;BME280;37799;52.390;6.136;2023-12-04T12:47:20;100622.47;;;2.53;100.00
37202;BME280;37799;52.390;6.136;2023-12-04T12:49:46;100628.44;;;2.55;100.00